<?xml version="1.0" encoding="utf-8"?>
<gpx xmlns:xsi="http://www.w3.org/2001/XMLSchema-instance" xmlns:xsd="http://www.w3.org/2001/XMLSchema" version="1.1" creator="Shapelink.com" xmlns="http://www.topografix.com/GPX/1/1" xmlns:gpxtpx="http://www.garmin.com/xmlschemas/TrackPointExtension/v1">
  <metadata>
    <name>Övrigt 2.95 km, 2019-04-30</name>
    <desc></desc>
    <author><name>Marian Moron</name></author> 
    <time>2019-04-30T18:51:04Z</time>
  </metadata>
  <trk>
    <name>Övrigt 2.95 km, 2019-04-30</name>
    <trkseg>
      <trkpt lat="51.215720476563" lon="4.482335521754">
        <ele>0</ele>
        <time>2019-04-30T18:51:04Z</time>
      </trkpt>
      <trkpt lat="51.215580079738" lon="4.482483797565">
        <ele>0</ele>
        <time>2019-04-30T18:51:23Z</time>
      </trkpt>
      <trkpt lat="51.215581756118" lon="4.483204305689">
        <ele>0.4</ele>
        <time>2019-04-30T18:52:00Z</time>
      </trkpt>
      <trkpt lat="51.215588126362" lon="4.483934620636">
        <ele>0</ele>
        <time>2019-04-30T18:52:38Z</time>
      </trkpt>
      <trkpt lat="51.215591311484" lon="4.484265705686">
        <ele>0</ele>
        <time>2019-04-30T18:52:57Z</time>
      </trkpt>
      <trkpt lat="51.215610422216" lon="4.484472990073">
        <ele>0</ele>
        <time>2019-04-30T18:53:07Z</time>
      </trkpt>
      <trkpt lat="51.215599777203" lon="4.484657978606">
        <ele>0</ele>
        <time>2019-04-30T18:53:18Z</time>
      </trkpt>
      <trkpt lat="51.215594748063" lon="4.484708353825">
        <ele>0</ele>
        <time>2019-04-30T18:53:21Z</time>
      </trkpt>
      <trkpt lat="51.215527609044" lon="4.485158210398">
        <ele>0</ele>
        <time>2019-04-30T18:54:32Z</time>
      </trkpt>
      <trkpt lat="51.215252766543" lon="4.485283687441">
        <ele>0.2</ele>
        <time>2019-04-30T18:54:58Z</time>
      </trkpt>
      <trkpt lat="51.215028215442" lon="4.485322076543">
        <ele>2.4</ele>
        <time>2019-04-30T18:55:17Z</time>
      </trkpt>
      <trkpt lat="51.215041542663" lon="4.485383767327">
        <ele>7.4</ele>
        <time>2019-04-30T18:57:13Z</time>
      </trkpt>
      <trkpt lat="51.215009775262" lon="4.485301540888">
        <ele>5.2</ele>
        <time>2019-04-30T18:57:19Z</time>
      </trkpt>
      <trkpt lat="51.215124020559" lon="4.485055867399">
        <ele>0</ele>
        <time>2019-04-30T18:57:37Z</time>
      </trkpt>
      <trkpt lat="51.215345554176" lon="4.484543398033">
        <ele>0</ele>
        <time>2019-04-30T18:58:05Z</time>
      </trkpt>
      <trkpt lat="51.21541730324" lon="4.484560916204">
        <ele>0</ele>
        <time>2019-04-30T18:58:32Z</time>
      </trkpt>
      <trkpt lat="51.215422080923" lon="4.484519761075">
        <ele>0</ele>
        <time>2019-04-30T18:59:54Z</time>
      </trkpt>
      <trkpt lat="51.215492488883" lon="4.48383789351">
        <ele>0.4</ele>
        <time>2019-04-30T19:00:34Z</time>
      </trkpt>
      <trkpt lat="51.215474048703" lon="4.483760947668">
        <ele>3</ele>
        <time>2019-04-30T19:02:48Z</time>
      </trkpt>
      <trkpt lat="51.215457703998" lon="4.483629268019">
        <ele>2.2</ele>
        <time>2019-04-30T19:03:08Z</time>
      </trkpt>
      <trkpt lat="51.215460470025" lon="4.483548382684">
        <ele>1.8</ele>
        <time>2019-04-30T19:03:14Z</time>
      </trkpt>
      <trkpt lat="51.215393917739" lon="4.483502366053">
        <ele>0</ele>
        <time>2019-04-30T19:03:27Z</time>
      </trkpt>
      <trkpt lat="51.215343291063" lon="4.483521979699">
        <ele>0</ele>
        <time>2019-04-30T19:03:33Z</time>
      </trkpt>
      <trkpt lat="51.215387882771" lon="4.484226897489">
        <ele>2.8</ele>
        <time>2019-04-30T19:04:08Z</time>
      </trkpt>
      <trkpt lat="51.215115303383" lon="4.484738361027">
        <ele>3</ele>
        <time>2019-04-30T19:04:49Z</time>
      </trkpt>
      <trkpt lat="51.214860409804" lon="4.484664851764">
        <ele>5.6</ele>
        <time>2019-04-30T19:05:12Z</time>
      </trkpt>
      <trkpt lat="51.214758150624" lon="4.484499476877">
        <ele>5.4</ele>
        <time>2019-04-30T19:05:25Z</time>
      </trkpt>
      <trkpt lat="51.214719426246" lon="4.483964879295">
        <ele>4.8</ele>
        <time>2019-04-30T19:05:50Z</time>
      </trkpt>
      <trkpt lat="51.214682713524" lon="4.483241018411">
        <ele>1</ele>
        <time>2019-04-30T19:06:24Z</time>
      </trkpt>
      <trkpt lat="51.214895362327" lon="4.482654955963">
        <ele>0</ele>
        <time>2019-04-30T19:07:00Z</time>
      </trkpt>
      <trkpt lat="51.215162325842" lon="4.482647076977">
        <ele>0</ele>
        <time>2019-04-30T19:07:23Z</time>
      </trkpt>
      <trkpt lat="51.21516333167" lon="4.482665852433">
        <ele>0</ele>
        <time>2019-04-30T19:07:27Z</time>
      </trkpt>
      <trkpt lat="51.21504095593" lon="4.482617237413">
        <ele>0</ele>
        <time>2019-04-30T19:07:37Z</time>
      </trkpt>
      <trkpt lat="51.214658238376" lon="4.482920494555">
        <ele>3.8</ele>
        <time>2019-04-30T19:08:10Z</time>
      </trkpt>
      <trkpt lat="51.214643067137" lon="4.483638907204">
        <ele>0</ele>
        <time>2019-04-30T19:08:48Z</time>
      </trkpt>
      <trkpt lat="51.214685479551" lon="4.48427794326">
        <ele>0</ele>
        <time>2019-04-30T19:09:21Z</time>
      </trkpt>
      <trkpt lat="51.214682713524" lon="4.484386572684">
        <ele>0</ele>
        <time>2019-04-30T19:09:27Z</time>
      </trkpt>
      <trkpt lat="51.214799221934" lon="4.484656553683">
        <ele>0</ele>
        <time>2019-04-30T19:09:45Z</time>
      </trkpt>
      <trkpt lat="51.214840460882" lon="4.484719837028">
        <ele>0</ele>
        <time>2019-04-30T19:09:51Z</time>
      </trkpt>
      <trkpt lat="51.215258466235" lon="4.484713969698">
        <ele>0</ele>
        <time>2019-04-30T19:10:23Z</time>
      </trkpt>
      <trkpt lat="51.215398360146" lon="4.484070994149">
        <ele>0</ele>
        <time>2019-04-30T19:10:54Z</time>
      </trkpt>
      <trkpt lat="51.215380339061" lon="4.483352497681">
        <ele>1.8</ele>
        <time>2019-04-30T19:11:23Z</time>
      </trkpt>
      <trkpt lat="51.215191746311" lon="4.482716311471">
        <ele>0</ele>
        <time>2019-04-30T19:11:51Z</time>
      </trkpt>
      <trkpt lat="51.214765861972" lon="4.482816056081">
        <ele>0</ele>
        <time>2019-04-30T19:12:21Z</time>
      </trkpt>
      <trkpt lat="51.214667877561" lon="4.48298042514">
        <ele>0.4</ele>
        <time>2019-04-30T19:12:30Z</time>
      </trkpt>
      <trkpt lat="51.214713558916" lon="4.48368869569">
        <ele>1.2</ele>
        <time>2019-04-30T19:12:56Z</time>
      </trkpt>
      <trkpt lat="51.214701153704" lon="4.48439528986">
        <ele>2</ele>
        <time>2019-04-30T19:13:22Z</time>
      </trkpt>
      <trkpt lat="51.215028969813" lon="4.484803656028">
        <ele>0.6</ele>
        <time>2019-04-30T19:13:52Z</time>
      </trkpt>
      <trkpt lat="51.215370867514" lon="4.484404426131">
        <ele>0</ele>
        <time>2019-04-30T19:14:20Z</time>
      </trkpt>
      <trkpt lat="51.215442616578" lon="4.483889442195">
        <ele>0</ele>
        <time>2019-04-30T19:14:47Z</time>
      </trkpt>
      <trkpt lat="51.215447226623" lon="4.483693892468">
        <ele>0</ele>
        <time>2019-04-30T19:14:57Z</time>
      </trkpt>
      <trkpt lat="51.215458961283" lon="4.483612923314">
        <ele>0</ele>
        <time>2019-04-30T19:15:02Z</time>
      </trkpt>
      <trkpt lat="51.215401042354" lon="4.482904820402">
        <ele>0</ele>
        <time>2019-04-30T19:15:39Z</time>
      </trkpt>
      <trkpt lat="51.215378159767" lon="4.482830053854">
        <ele>0</ele>
        <time>2019-04-30T19:15:44Z</time>
      </trkpt>
      <trkpt lat="51.214988820512" lon="4.482492011827">
        <ele>0</ele>
        <time>2019-04-30T19:16:20Z</time>
      </trkpt>
      <trkpt lat="51.214802490875" lon="4.482574489723">
        <ele>0</ele>
        <time>2019-04-30T19:16:36Z</time>
      </trkpt>
      <trkpt lat="51.214663183697" lon="4.483235737814">
        <ele>1.4</ele>
        <time>2019-04-30T19:17:06Z</time>
      </trkpt>
      <trkpt lat="51.214668212837" lon="4.483410668067">
        <ele>0.8</ele>
        <time>2019-04-30T19:17:13Z</time>
      </trkpt>
      <trkpt lat="51.214688161759" lon="4.483947361124">
        <ele>0</ele>
        <time>2019-04-30T19:17:36Z</time>
      </trkpt>
      <trkpt lat="51.214662848421" lon="4.483930513505">
        <ele>0</ele>
        <time>2019-04-30T19:17:39Z</time>
      </trkpt>
      <trkpt lat="51.214715486753" lon="4.483206149707">
        <ele>0</ele>
        <time>2019-04-30T19:18:05Z</time>
      </trkpt>
      <trkpt lat="51.214732250553" lon="4.482975312181">
        <ele>0</ele>
        <time>2019-04-30T19:18:15Z</time>
      </trkpt>
      <trkpt lat="51.215125445482" lon="4.482714048358">
        <ele>0</ele>
        <time>2019-04-30T19:18:45Z</time>
      </trkpt>
      <trkpt lat="51.215392828092" lon="4.483251914881">
        <ele>0</ele>
        <time>2019-04-30T19:19:20Z</time>
      </trkpt>
      <trkpt lat="51.215403389286" lon="4.483198857454">
        <ele>0</ele>
        <time>2019-04-30T19:19:27Z</time>
      </trkpt>
      <trkpt lat="51.215388637142" lon="4.48315812142">
        <ele>0</ele>
        <time>2019-04-30T19:19:30Z</time>
      </trkpt>
      <trkpt lat="51.215331221127" lon="4.483049072901">
        <ele>0</ele>
        <time>2019-04-30T19:19:37Z</time>
      </trkpt>
      <trkpt lat="51.215292329111" lon="4.483008253048">
        <ele>0</ele>
        <time>2019-04-30T19:19:43Z</time>
      </trkpt>
      <trkpt lat="51.215305153418" lon="4.482961649684">
        <ele>0</ele>
        <time>2019-04-30T19:19:46Z</time>
      </trkpt>
      <trkpt lat="51.215332562231" lon="4.483009510333">
        <ele>0</ele>
        <time>2019-04-30T19:19:50Z</time>
      </trkpt>
      <trkpt lat="51.215335244439" lon="4.483728258258">
        <ele>0</ele>
        <time>2019-04-30T19:20:22Z</time>
      </trkpt>
      <trkpt lat="51.215367430935" lon="4.484229831154">
        <ele>0</ele>
        <time>2019-04-30T19:20:44Z</time>
      </trkpt>
      <trkpt lat="51.215433145031" lon="4.484443653423">
        <ele>0</ele>
        <time>2019-04-30T19:20:57Z</time>
      </trkpt>
      <trkpt lat="51.215054618427" lon="4.484786473133">
        <ele>0</ele>
        <time>2019-04-30T19:21:35Z</time>
      </trkpt>
      <trkpt lat="51.215043302862" lon="4.484788736246">
        <ele>0</ele>
        <time>2019-04-30T19:21:36Z</time>
      </trkpt>
      <trkpt lat="51.214985886847" lon="4.484791083178">
        <ele>0</ele>
        <time>2019-04-30T19:21:46Z</time>
      </trkpt>
      <trkpt lat="51.214931488316" lon="4.484871214142">
        <ele>0</ele>
        <time>2019-04-30T19:21:53Z</time>
      </trkpt>
      <trkpt lat="51.214956214921" lon="4.484901640439">
        <ele>0</ele>
        <time>2019-04-30T19:21:56Z</time>
      </trkpt>
      <trkpt lat="51.215058055006" lon="4.484898539136">
        <ele>0</ele>
        <time>2019-04-30T19:22:04Z</time>
      </trkpt>
      <trkpt lat="51.215378914138" lon="4.484644986661">
        <ele>0.4</ele>
        <time>2019-04-30T19:22:58Z</time>
      </trkpt>
      <trkpt lat="51.21536365908" lon="4.484566448258">
        <ele>0</ele>
        <time>2019-04-30T19:23:06Z</time>
      </trkpt>
      <trkpt lat="51.215454602695" lon="4.483937470482">
        <ele>0</ele>
        <time>2019-04-30T19:23:40Z</time>
      </trkpt>
      <trkpt lat="51.21545166903" lon="4.483814843285">
        <ele>0</ele>
        <time>2019-04-30T19:23:48Z</time>
      </trkpt>
      <trkpt lat="51.215445047329" lon="4.483689869156">
        <ele>0</ele>
        <time>2019-04-30T19:24:04Z</time>
      </trkpt>
      <trkpt lat="51.215445717881" lon="4.483736137244">
        <ele>0</ele>
        <time>2019-04-30T19:24:32Z</time>
      </trkpt>
      <trkpt lat="51.215432055384" lon="4.484440971215">
        <ele>0</ele>
        <time>2019-04-30T19:25:10Z</time>
      </trkpt>
      <trkpt lat="51.215387463676" lon="4.484578182918">
        <ele>0</ele>
        <time>2019-04-30T19:25:19Z</time>
      </trkpt>
      <trkpt lat="51.215459715654" lon="4.484418088628">
        <ele>0</ele>
        <time>2019-04-30T19:26:34Z</time>
      </trkpt>
      <trkpt lat="51.215462649319" lon="4.484278110898">
        <ele>0</ele>
        <time>2019-04-30T19:26:49Z</time>
      </trkpt>
      <trkpt lat="51.215452926315" lon="4.484161602488">
        <ele>0</ele>
        <time>2019-04-30T19:27:34Z</time>
      </trkpt>
      <trkpt lat="51.215442029845" lon="4.48373731071">
        <ele>0</ele>
        <time>2019-04-30T19:28:16Z</time>
      </trkpt>
      <trkpt lat="51.215438341809" lon="4.48368282836">
        <ele>0</ele>
        <time>2019-04-30T19:28:20Z</time>
      </trkpt>
      <trkpt lat="51.215457452541" lon="4.483671345157">
        <ele>0</ele>
        <time>2019-04-30T19:28:31Z</time>
      </trkpt>
      <trkpt lat="51.215459296559" lon="4.483767653188">
        <ele>0</ele>
        <time>2019-04-30T19:28:42Z</time>
      </trkpt>
      <trkpt lat="51.21546088912" lon="4.483793134164">
        <ele>0</ele>
        <time>2019-04-30T19:28:47Z</time>
      </trkpt>
      <trkpt lat="51.215459128921" lon="4.484511965908">
        <ele>0</ele>
        <time>2019-04-30T19:29:29Z</time>
      </trkpt>
      <trkpt lat="51.215463990423" lon="4.484585391352">
        <ele>0</ele>
        <time>2019-04-30T19:29:35Z</time>
      </trkpt>
      <trkpt lat="51.215371370428" lon="4.484636940037">
        <ele>0</ele>
        <time>2019-04-30T19:30:13Z</time>
      </trkpt>
      <trkpt lat="51.2152865456" lon="4.484646327765">
        <ele>0</ele>
        <time>2019-04-30T19:30:20Z</time>
      </trkpt>
      <trkpt lat="51.215229632499" lon="4.484692763491">
        <ele>0</ele>
        <time>2019-04-30T19:30:28Z</time>
      </trkpt>
      <trkpt lat="51.214905504426" lon="4.484855120894">
        <ele>0</ele>
        <time>2019-04-30T19:31:04Z</time>
      </trkpt>
      <trkpt lat="51.215079177394" lon="4.484906753398">
        <ele>0</ele>
        <time>2019-04-30T19:31:20Z</time>
      </trkpt>
      <trkpt lat="51.215306913617" lon="4.48475403518">
        <ele>0</ele>
        <time>2019-04-30T19:31:41Z</time>
      </trkpt>
      <trkpt lat="51.215340022122" lon="4.484726961643">
        <ele>0</ele>
        <time>2019-04-30T19:31:46Z</time>
      </trkpt>
      <trkpt lat="51.21537120279" lon="4.484678933356">
        <ele>0</ele>
        <time>2019-04-30T19:31:51Z</time>
      </trkpt>
      <trkpt lat="51.215337339914" lon="4.484760070148">
        <ele>0</ele>
        <time>2019-04-30T19:35:43Z</time>
      </trkpt>
      <trkpt lat="51.215292915844" lon="4.484830059013">
        <ele>0</ele>
        <time>2019-04-30T19:35:50Z</time>
      </trkpt>
      <trkpt lat="51.215319654105" lon="4.485248483461">
        <ele>0</ele>
        <time>2019-04-30T19:36:31Z</time>
      </trkpt>
      <trkpt lat="51.215574463865" lon="4.484800387087">
        <ele>0</ele>
        <time>2019-04-30T19:37:12Z</time>
      </trkpt>
      <trkpt lat="51.215579828281" lon="4.484079962782">
        <ele>0</ele>
        <time>2019-04-30T19:37:52Z</time>
      </trkpt>
      <trkpt lat="51.215576140245" lon="4.483348139093">
        <ele>0</ele>
        <time>2019-04-30T19:38:29Z</time>
      </trkpt>
      <trkpt lat="51.215539762799" lon="4.482628804435">
        <ele>0</ele>
        <time>2019-04-30T19:39:06Z</time>
      </trkpt>
      <trkpt lat="51.215605644533" lon="4.48229310934">
        <ele>0</ele>
        <time>2019-04-30T19:39:24Z</time>
      </trkpt>
      <trkpt lat="51.215790046333" lon="4.482255726066">
        <ele>0</ele>
        <time>2019-04-30T19:39:47Z</time>
      </trkpt>
      <trkpt lat="51.215815694947" lon="4.482252708582">
        <ele>0</ele>
        <time>2019-04-30T19:39:52Z</time>
      </trkpt>
    </trkseg>
  </trk>
</gpx>